sensor_id;sensor_type;location;lat;lon;timestamp;pressure;altitude;pressure_sealevel;temperature;humidity
50696;BME280;36665;51.786;21.594;2023-03-04T00:08:12;91736.86;;;-1.02;75.50
50696;BME280;36665;51.786;21.594;2023-03-04T00:16:35;91739.39;;;-1.02;75.52
50696;BME280;36665;51.786;21.594;2023-03-04T00:24:58;91753.38;;;-0.99;75.44
50696;BME280;36665;51.786;21.594;2023-03-04T00:33:21;91763.08;;;-0.96;75.34
50696;BME280;36665;51.786;21.594;2023-03-04T00:41:45;91775.79;;;-0.92;75.57
50696;BME280;36665;51.786;21.594;2023-03-04T00:50:09;91782.98;;;-0.91;75.64
50696;BME280;36665;51.786;21.594;2023-03-04T00:58:32;91770.34;;;-0.94;75.32
50696;BME280;36665;51.786;21.594;2023-03-04T01:06:55;91772.77;;;-0.94;75.32
50696;BME280;36665;51.786;21.594;2023-03-04T01:15:19;91767.06;;;-0.95;75.36
50696;BME280;36665;51.786;21.594;2023-03-04T01:23:42;91770.27;;;-0.95;75.61
50696;BME280;36665;51.786;21.594;2023-03-04T01:32:06;91762.53;;;-0.97;75.36
50696;BME280;36665;51.786;21.594;2023-03-04T01:40:30;91770.27;;;-0.95;75.48
50696;BME280;36665;51.786;21.594;2023-03-04T01:48:53;91763.32;;;-0.97;75.47
50696;BME280;36665;51.786;21.594;2023-03-04T01:57:20;91770.59;;;-0.95;75.57
50696;BME280;36665;51.786;21.594;2023-03-04T02:05:47;91769.05;;;-0.95;75.43
50696;BME280;36665;51.786;21.594;2023-03-04T02:14:12;91782.04;;;-0.92;75.43
50696;BME280;36665;51.786;21.594;2023-03-04T02:22:39;91785.44;;;-0.91;75.55
50696;BME280;36665;51.786;21.594;2023-03-04T02:31:08;91788.84;;;-0.89;75.43
50696;BME280;36665;51.786;21.594;2023-03-04T02:39:38;91790.51;;;-0.88;75.31
50696;BME280;36665;51.786;21.594;2023-03-04T02:48:02;91800.14;;;-0.86;75.51
50696;BME280;36665;51.786;21.594;2023-03-04T02:56:25;91803.36;;;-0.86;75.50
50696;BME280;36665;51.786;21.594;2023-03-04T03:04:49;91815.08;;;-0.82;75.52
50696;BME280;36665;51.786;21.594;2023-03-04T03:13:13;91818.20;;;-0.81;75.56
50696;BME280;36665;51.786;21.594;2023-03-04T03:21:36;91828.78;;;-0.79;75.50
50696;BME280;36665;51.786;21.594;2023-03-04T03:29:59;91831.42;;;-0.78;75.41
50696;BME280;36665;51.786;21.594;2023-03-04T03:38:23;91847.77;;;-0.73;75.41
50696;BME280;36665;51.786;21.594;2023-03-04T03:46:46;91861.09;;;-0.70;75.35
50696;BME280;36665;51.786;21.594;2023-03-04T03:55:09;91868.46;;;-0.68;75.64
50696;BME280;36665;51.786;21.594;2023-03-04T04:03:32;91870.55;;;-0.67;75.62
50696;BME280;36665;51.786;21.594;2023-03-04T04:11:55;91888.61;;;-0.62;75.56
50696;BME280;36665;51.786;21.594;2023-03-04T04:20:19;91903.03;;;-0.58;75.50
50696;BME280;36665;51.786;21.594;2023-03-04T04:28:42;91921.09;;;-0.53;75.62
50696;BME280;36665;51.786;21.594;2023-03-04T04:37:05;91933.85;;;-0.50;75.63
50696;BME280;36665;51.786;21.594;2023-03-04T04:45:28;91955.75;;;-0.44;75.53
50696;BME280;36665;51.786;21.594;2023-03-04T04:53:51;91974.17;;;-0.40;75.65
50696;BME280;36665;51.786;21.594;2023-03-04T05:02:15;91996.02;;;-0.34;75.93
50696;BME280;36665;51.786;21.594;2023-03-04T05:10:38;92011.36;;;-0.29;75.63
50696;BME280;36665;51.786;21.594;2023-03-04T05:19:01;92035.89;;;-0.22;75.79
50696;BME280;36665;51.786;21.594;2023-03-04T05:27:24;92048.92;;;-0.19;75.82
50696;BME280;36665;51.786;21.594;2023-03-04T05:35:47;92066.71;;;-0.15;75.94
50696;BME280;36665;51.786;21.594;2023-03-04T05:44:11;92085.77;;;-0.08;75.71
50696;BME280;36665;51.786;21.594;2023-03-04T05:52:34;92101.50;;;-0.04;75.78
50696;BME280;36665;51.786;21.594;2023-03-04T06:01:01;92127.48;;;0.03;75.90
50696;BME280;36665;51.786;21.594;2023-03-04T06:09:25;92141.08;;;0.06;75.94
50696;BME280;36665;51.786;21.594;2023-03-04T06:17:49;92155.16;;;0.10;75.86
50696;BME280;36665;51.786;21.594;2023-03-04T06:26:12;92165.89;;;0.12;75.77
50696;BME280;36665;51.786;21.594;2023-03-04T06:34:37;92186.86;;;0.18;75.86
50696;BME280;36665;51.786;21.594;2023-03-04T06:43:00;92199.10;;;0.22;76.01
50696;BME280;36665;51.786;21.594;2023-03-04T06:51:24;92191.83;;;0.20;75.95
50696;BME280;36665;51.786;21.594;2023-03-04T06:59:47;92199.59;;;0.21;75.97
50696;BME280;36665;51.786;21.594;2023-03-04T07:08:10;92199.67;;;0.22;75.93
50696;BME280;36665;51.786;21.594;2023-03-04T07:16:34;92217.33;;;0.26;75.97
50696;BME280;36665;51.786;21.594;2023-03-04T07:24:57;92220.83;;;0.27;75.82
50696;BME280;36665;51.786;21.594;2023-03-04T07:33:20;92220.11;;;0.27;75.90
50696;BME280;36665;51.786;21.594;2023-03-04T07:41:43;92218.57;;;0.26;75.93
50696;BME280;36665;51.786;21.594;2023-03-04T07:50:08;92217.17;;;0.26;75.95
50696;BME280;36665;51.786;21.594;2023-03-04T07:58:31;92230.04;;;0.29;75.86
50696;BME280;36665;51.786;21.594;2023-03-04T08:06:55;92241.23;;;0.32;75.92
50696;BME280;36665;51.786;21.594;2023-03-04T08:15:18;92259.23;;;0.37;76.06
50696;BME280;36665;51.786;21.594;2023-03-04T08:23:41;92277.69;;;0.41;75.95
50696;BME280;36665;51.786;21.594;2023-03-04T08:32:05;92300.13;;;0.48;75.91
50696;BME280;36665;51.786;21.594;2023-03-04T08:40:28;92315.41;;;0.52;75.88
50696;BME280;36665;51.786;21.594;2023-03-04T08:48:52;92327.94;;;0.55;75.89
50696;BME280;36665;51.786;21.594;2023-03-04T08:57:16;92348.15;;;0.61;76.00
50696;BME280;36665;51.786;21.594;2023-03-04T09:05:39;92356.92;;;0.64;75.98
50696;BME280;36665;51.786;21.594;2023-03-04T09:14:02;92364.21;;;0.66;75.92
50696;BME280;36665;51.786;21.594;2023-03-04T09:22:26;92366.30;;;0.67;75.81
50696;BME280;36665;51.786;21.594;2023-03-04T09:30:49;92386.30;;;0.71;76.07
50696;BME280;36665;51.786;21.594;2023-03-04T09:39:12;92400.20;;;0.75;76.10
50696;BME280;36665;51.786;21.594;2023-03-04T09:47:36;92416.31;;;0.81;76.01
50696;BME280;36665;51.786;21.594;2023-03-04T09:56:00;92444.30;;;0.88;76.11
50696;BME280;36665;51.786;21.594;2023-03-04T10:04:52;92478.51;;;0.97;76.20
50696;BME280;36665;51.786;21.594;2023-03-04T10:13:32;92506.15;;;1.04;76.12
50696;BME280;36665;51.786;21.594;2023-03-04T10:21:59;92525.36;;;1.08;76.28
50696;BME280;36665;51.786;21.594;2023-03-04T10:39:16;92552.41;;;1.16;76.09
50696;BME280;36665;51.786;21.594;2023-03-04T10:47:51;92541.10;;;1.13;76.15
50696;BME280;36665;51.786;21.594;2023-03-04T10:56:31;92558.52;;;1.18;76.13
50696;BME280;36665;51.786;21.594;2023-03-04T11:13:34;92583.59;;;1.25;75.96
50696;BME280;36665;51.786;21.594;2023-03-04T11:21:57;92595.14;;;1.27;75.97
50696;BME280;36665;51.786;21.594;2023-03-04T11:30:31;92614.85;;;1.33;76.14
50696;BME280;36665;51.786;21.594;2023-03-04T11:38:56;92631.30;;;1.36;76.08
50696;BME280;36665;51.786;21.594;2023-03-04T11:56:31;92677.92;;;1.49;76.19
50696;BME280;36665;51.786;21.594;2023-03-04T12:05:14;92701.00;;;1.55;76.18
50696;BME280;36665;51.786;21.594;2023-03-04T12:22:42;92748.55;;;1.69;76.22
50696;BME280;36665;51.786;21.594;2023-03-04T12:57:36;92763.77;;;1.72;76.16
50696;BME280;36665;51.786;21.594;2023-03-04T13:06:18;92710.48;;;1.57;76.09
50696;BME280;36665;51.786;21.594;2023-03-04T13:23:29;92714.66;;;1.58;76.08
50696;BME280;36665;51.786;21.594;2023-03-04T13:40:32;92779.23;;;1.76;76.18
50696;BME280;36665;51.786;21.594;2023-03-04T13:57:19;92842.16;;;1.92;76.32
50696;BME280;36665;51.786;21.594;2023-03-04T14:05:43;92771.10;;;1.73;76.28
50696;BME280;36665;51.786;21.594;2023-03-04T14:14:11;92661.31;;;1.44;76.14
50696;BME280;36665;51.786;21.594;2023-03-04T14:22:38;92606.50;;;1.28;76.12
50696;BME280;36665;51.786;21.594;2023-03-04T14:31:03;92616.38;;;1.31;76.06
50696;BME280;36665;51.786;21.594;2023-03-04T14:39:29;92651.63;;;1.41;76.12
50696;BME280;36665;51.786;21.594;2023-03-04T14:47:56;92673.34;;;1.47;76.32
50696;BME280;36665;51.786;21.594;2023-03-04T15:04:12;92692.30;;;1.53;76.37
50696;BME280;36665;51.786;21.594;2023-03-04T15:12:40;92682.82;;;1.46;76.30
50696;BME280;36665;51.786;21.594;2023-03-04T15:29:47;92581.28;;;1.21;76.24
50696;BME280;36665;51.786;21.594;2023-03-04T15:38:11;92541.45;;;1.10;76.37
50696;BME280;36665;51.786;21.594;2023-03-04T15:46:34;92527.56;;;1.06;76.40
50696;BME280;36665;51.786;21.594;2023-03-04T15:54:57;92499.90;;;0.98;76.27
50696;BME280;36665;51.786;21.594;2023-03-04T16:03:21;92421.45;;;0.77;76.27
50696;BME280;36665;51.786;21.594;2023-03-04T16:11:45;92351.66;;;0.58;76.22
50696;BME280;36665;51.786;21.594;2023-03-04T16:20:11;92320.61;;;0.50;76.23
50696;BME280;36665;51.786;21.594;2023-03-04T16:28:35;92303.70;;;0.45;76.32
50696;BME280;36665;51.786;21.594;2023-03-04T16:37:01;92297.48;;;0.43;76.26
50696;BME280;36665;51.786;21.594;2023-03-04T16:45:26;92276.47;;;0.37;76.36
50696;BME280;36665;51.786;21.594;2023-03-04T16:53:54;92196.39;;;0.15;76.16
50696;BME280;36665;51.786;21.594;2023-03-04T17:02:20;92112.71;;;-0.08;76.10
50696;BME280;36665;51.786;21.594;2023-03-04T17:10:44;92057.39;;;-0.22;75.90
50696;BME280;36665;51.786;21.594;2023-03-04T17:19:07;92005.39;;;-0.37;75.75
50696;BME280;36665;51.786;21.594;2023-03-04T17:27:30;91969.02;;;-0.46;75.59
50696;BME280;36665;51.786;21.594;2023-03-04T17:35:53;91939.52;;;-0.54;75.57
50696;BME280;36665;51.786;21.594;2023-03-04T17:44:18;91902.47;;;-0.64;75.37
50696;BME280;36665;51.786;21.594;2023-03-04T17:52:41;91865.42;;;-0.74;75.58
50696;BME280;36665;51.786;21.594;2023-03-04T18:01:16;91820.86;;;-0.87;75.23
50696;BME280;36665;51.786;21.594;2023-03-04T18:09:41;91788.62;;;-0.95;75.33
50696;BME280;36665;51.786;21.594;2023-03-04T18:18:06;91763.48;;;-1.01;75.10
50696;BME280;36665;51.786;21.594;2023-03-04T18:26:29;91722.59;;;-1.12;75.20
50696;BME280;36665;51.786;21.594;2023-03-04T18:34:52;91692.15;;;-1.18;75.07
50696;BME280;36665;51.786;21.594;2023-03-04T18:43:15;91673.46;;;-1.25;75.07
50696;BME280;36665;51.786;21.594;2023-03-04T18:51:38;91649.15;;;-1.32;75.03
50696;BME280;36665;51.786;21.594;2023-03-04T19:00:03;91618.29;;;-1.40;74.78
50696;BME280;36665;51.786;21.594;2023-03-04T19:08:28;91588.76;;;-1.48;74.58
50696;BME280;36665;51.786;21.594;2023-03-04T19:16:51;91563.31;;;-1.55;74.56
50696;BME280;36665;51.786;21.594;2023-03-04T19:25:14;91526.46;;;-1.65;74.61
50696;BME280;36665;51.786;21.594;2023-03-04T19:33:38;91484.95;;;-1.77;74.63
50696;BME280;36665;51.786;21.594;2023-03-04T19:42:03;91439.69;;;-1.87;74.24
50696;BME280;36665;51.786;21.594;2023-03-04T19:50:26;91401.40;;;-1.98;74.37
50696;BME280;36665;51.786;21.594;2023-03-04T19:58:52;91369.45;;;-2.06;74.15
50696;BME280;36665;51.786;21.594;2023-03-04T20:07:16;91342.70;;;-2.14;74.27
50696;BME280;36665;51.786;21.594;2023-03-04T20:15:41;91312.66;;;-2.22;74.03
50696;BME280;36665;51.786;21.594;2023-03-04T20:24:05;91281.08;;;-2.31;73.78
50696;BME280;36665;51.786;21.594;2023-03-04T20:32:29;91252.18;;;-2.39;74.09
50696;BME280;36665;51.786;21.594;2023-03-04T20:40:53;91216.48;;;-2.48;73.93
50696;BME280;36665;51.786;21.594;2023-03-04T20:49:21;91172.40;;;-2.61;73.84
50696;BME280;36665;51.786;21.594;2023-03-04T20:57:46;91113.53;;;-2.76;73.90
50696;BME280;36665;51.786;21.594;2023-03-04T21:06:11;91076.45;;;-2.87;73.43
50696;BME280;36665;51.786;21.594;2023-03-04T21:14:35;91039.73;;;-2.97;73.57
50696;BME280;36665;51.786;21.594;2023-03-04T21:22:58;90996.21;;;-3.08;73.54
50696;BME280;36665;51.786;21.594;2023-03-04T21:31:27;90941.88;;;-3.24;73.46
50696;BME280;36665;51.786;21.594;2023-03-04T21:39:52;90884.05;;;-3.40;73.58
50696;BME280;36665;51.786;21.594;2023-03-04T21:48:17;90837.39;;;-3.53;73.37
50696;BME280;36665;51.786;21.594;2023-03-04T21:56:41;90796.42;;;-3.64;73.37
50696;BME280;36665;51.786;21.594;2023-03-04T22:05:04;90762.74;;;-3.73;73.11
50696;BME280;36665;51.786;21.594;2023-03-04T22:13:29;90733.52;;;-3.81;72.94
50696;BME280;36665;51.786;21.594;2023-03-04T22:21:53;90711.93;;;-3.88;72.90
50696;BME280;36665;51.786;21.594;2023-03-04T22:30:16;90670.75;;;-3.98;72.95
50696;BME280;36665;51.786;21.594;2023-03-04T22:38:40;90621.52;;;-4.12;72.96
50696;BME280;36665;51.786;21.594;2023-03-04T22:47:03;90573.26;;;-4.25;72.95
50696;BME280;36665;51.786;21.594;2023-03-04T22:55:28;90526.04;;;-4.38;72.94
50696;BME280;36665;51.786;21.594;2023-03-04T23:03:51;90486.48;;;-4.49;72.75
50696;BME280;36665;51.786;21.594;2023-03-04T23:12:14;90450.88;;;-4.59;72.53
50696;BME280;36665;51.786;21.594;2023-03-04T23:20:37;90416.17;;;-4.69;72.46
50696;BME280;36665;51.786;21.594;2023-03-04T23:29:07;90383.63;;;-4.78;72.63
50696;BME280;36665;51.786;21.594;2023-03-04T23:37:31;90355.33;;;-4.85;72.58
50696;BME280;36665;51.786;21.594;2023-03-04T23:45:56;90327.79;;;-4.93;72.57
50696;BME280;36665;51.786;21.594;2023-03-04T23:54:19;90304.67;;;-4.99;72.56
